• Join FlightAware (Why Join?)
  • Login
  • US Flag 
08:12AM EDT


 

Airport Tracker/Info


-or-


 

Live Flight TrackerFlight Track Log ✈ FDX3608 ✈ 11-May-2013 ✈ KDEN - KIND

Flight Track Log - Related Links

Times and Time Zones

All times are in EDT time to prevent confusion due to time zone crossing. See the FDX3608 flight status page for this flight to view local times or setup timezone preferences in your user account.

Time Position Orientation Groundspeed Altitude Reporting Facility
EDT Latitude Longitude Course Direction KTS MPH feet Rate Location/Type
09:46AM 39.8773 -104.6230 86° East 169 194 5,300  Level FlightAware ADS-B
09:46AM 39.8772 -104.6130 91° East 166 191 5,600 1,680 Climbing FlightAware ADS-B
09:46AM 39.8767 -104.5970 92° East 178 205 6,000 960 Climbing FlightAware ADS-B
09:47AM 39.8762 -104.5790 92° East 201 231 6,100 660 Climbing FlightAware ADS-B
09:47AM 39.8754 -104.5530 92° East 231 266 6,400 780 Climbing FlightAware ADS-B
09:47AM 39.8747 -104.5300 92° East 254 292 6,600 1,080 Climbing FlightAware ADS-B
09:48AM 39.8743 -104.5040 91° East 274 315 7,000 2,040 Climbing FlightAware ADS-B
09:48AM 39.8741 -104.4780 91° East 279 321 7,700 2,280 Climbing FlightAware ADS-B
09:48AM 39.8743 -104.4520 89° East 289 333 8,200 2,460 Climbing FlightAware ADS-B
09:48AM 39.8749 -104.4240 88° East 290 334 9,000 2,880 Climbing FlightAware ADS-B
09:49AM 39.8752 -104.3980 89° East 292 336 9,700 1,380 Climbing FlightAware ADS-B
09:49AM 39.8754 -104.3700 89° East 320 368 9,700 360 Level FlightAware ADS-B
09:49AM 39.8754 -104.3380 90° East 342 394 9,900 1,020 Climbing FlightAware ADS-B
09:50AM 39.8765 -104.2730 89° East 372 428 10,500 1,380 Climbing FlightAware ADS-B
09:50AM 39.8783 -104.2040 88° East 394 453 11,300 2,100 Climbing FlightAware ADS-B
09:50AM 39.8793 -104.1680 88° East 393 452 12,100 2,760 Climbing FlightAware ADS-B
09:51AM 39.8851 -104.0980 84° East 397 457 13,400 2,160 Climbing FlightAware ADS-B
09:51AM 39.8899 -104.0250 85° East 410 472 14,300 2,100 Climbing FlightAware ADS-B
09:52AM 39.8949 -103.9480 85° East 415 478 15,500 2,400 Climbing FlightAware ADS-B
09:52AM 39.9004 -103.8710 85° East 415 478 16,800 2,100 Climbing FlightAware ADS-B
09:53AM 39.9059 -103.7960 85° East 423 487 17,700 1,560 Climbing FlightAware ADS-B
09:53AM 39.9118 -103.7190 84° East 436 502 18,400 1,560 Climbing FlightAware ADS-B
09:54AM 39.9173 -103.6380 85° East 442 509 19,300 1,740 Climbing FlightAware ADS-B
09:54AM 39.9227 -103.5580 85° East 448 516 20,200 1,740 Climbing FlightAware ADS-B
09:55AM 39.9286 -103.4770 85° East 450 518 21,100 1,560 Climbing FlightAware ADS-B
09:55AM 39.9340 -103.3950 85° East 456 525 21,800 1,380 Climbing FlightAware ADS-B
09:56AM 39.9397 -103.3130 85° East 462 532 22,500 1,500 Climbing FlightAware ADS-B
09:56AM 39.9455 -103.2270 85° East 466 536 23,300 1,620 Climbing FlightAware ADS-B
09:57AM 39.9510 -103.1430 85° East 469 540 24,200 1,440 Climbing FlightAware ADS-B
09:57AM 39.9565 -103.0550 85° East 476 548 24,800 1,140 Climbing FlightAware ADS-B
09:58AM 39.9623 -102.9690 85° East 480 552 25,400 1,200 Climbing FlightAware ADS-B
09:58AM 39.9682 -102.8820 85° East 486 559 26,000 1,080 Climbing FlightAware ADS-B
09:59AM 39.9738 -102.7910 85° East 493 567 26,500 1,140 Climbing FlightAware ADS-B
10:00AM 39.9792 -102.7020 85° East 494 568 27,200 1,260 Climbing FlightAware ADS-B
10:00AM 39.9851 -102.6100 85° East 496 571 27,800 1,140 Climbing FlightAware ADS-B
10:01AM 39.9908 -102.5200 85° East 499 574 28,400 1,200 Climbing FlightAware ADS-B
10:01AM 39.9961 -102.4300 86° East 502 578 29,000 1,440 Climbing FlightAware ADS-B
10:02AM 40.0013 -102.3370 86° East 496 571 29,900 1,620 Climbing FlightAware ADS-B
10:02AM 40.0066 -102.2480 86° East 493 567 30,700 1,200 Climbing FlightAware ADS-B
10:03AM 40.0116 -102.1550 86° East 497 572 31,100 1,080 Climbing FlightAware ADS-B
10:03AM 40.0164 -102.0660 86° East 494 568 31,800 1,260 Climbing FlightAware ADS-B
10:04AM 40.0217 -101.9770 86° East 491 565 32,400 1,080 Climbing FlightAware ADS-B
10:04AM 40.0270 -101.8830 86° East 491 565 32,900 900 Climbing FlightAware ADS-B
10:05AM 40.0322 -101.7910 86° East 493 567 33,400 1,020 Climbing FlightAware ADS-B
10:05AM 40.0373 -101.6990 86° East 490 564 34,000 960 Climbing FlightAware ADS-B
10:06AM 40.0423 -101.6110 86° East 496 571 34,400 720 Climbing FlightAware ADS-B
10:06AM 40.0471 -101.5150 86° East 497 572 34,800 540 Climbing FlightAware ADS-B
10:07AM 40.0519 -101.4220 86° East 496 571 35,000 180 Climbing FlightAware ADS-B
10:07AM 40.0562 -101.3300 86° East 497 572 35,000  Level FlightAware ADS-B
10:08AM 40.0609 -101.2340 86° East 498 573 35,000  Level FlightAware ADS-B
10:08AM 40.0661 -101.1350 86° East 498 573 35,000  Level FlightAware ADS-B
10:09AM 40.0686 -101.0661 86° East 498 573 35,000  Level Denver Center
10:10AM 40.0775 -100.8933 86° East 500 575 35,000  Level Denver Center
10:11AM 40.0864 -100.6922 87° East 501 577 35,000  Level Denver Center
10:12AM 40.0939 -100.5192 87° East 501 577 35,000  Level Denver Center
10:13AM 40.1025 -100.3175 87° East 501 577 35,000  Level Denver Center
10:14AM 40.1089 -100.1453 87° East 500 575 35,000  Level Denver Center
10:15AM 40.1164 -99.9728 87° East 498 573 35,000  Level Denver Center
10:16AM 40.1247 -99.7656 87° East 503 579 35,000  Level Denver Center
10:17AM 40.1300 -99.5822 88° East 506 582 35,000  Level Denver Center
10:18AM 40.1364 -99.3992 87° East 507 583 35,000  Level Denver Center
10:19AM 40.1433 -99.2164 87° East 506 582 35,000  Level Denver Center
10:20AM 40.1483 -99.0319 88° East 510 587 35,000  Level Denver Center
10:21AM 40.1542 -98.8469 88° East 510 587 35,000  Level Denver Center
10:22AM 40.1594 -98.6628 88° East 509 586 35,000  Level Denver Center
10:23AM 40.1644 -98.4767 88° East 514 592 35,000  Level Denver Center
10:24AM 40.1700 -98.2172 88° East 515 593 35,000  Level Minneapolis Center
10:25AM 40.1739 -98.0283 88° East 519 597 35,000  Level Minneapolis Center
10:26AM 40.1775 -97.8414 88° East 518 596 35,000  Level Minneapolis Center
10:27AM 40.1822 -97.6531 88° East 519 597 35,000  Level Minneapolis Center
10:28AM 40.1850 -97.4639 89° East 520 598 35,000  Level Minneapolis Center
10:29AM 40.1886 -97.2553 89° East 521 600 35,000  Level Minneapolis Center
10:30AM 40.1917 -97.0653 89° East 524 603 35,000  Level Minneapolis Center
10:31AM 40.1933 -96.9136 89° East 524 603 35,000  Level Minneapolis Center
10:38AM 40.1980 -95.8240 89° East 531 611 35,000  Level FlightAware
10:38AM 40.1980 -95.7470 90° East 532 612 35,000  Level FlightAware
10:39AM 40.1980 -95.6130 90° East 533 613 35,000  Level FlightAware
10:39AM 40.1980 -95.5310 90° East 533 613 35,000  Level FlightAware
10:40AM 40.1980 -95.4480 90° East 533 613 35,000  Level FlightAware
10:40AM 40.1950 -95.3200 92° East 539 620 35,000  Level FlightAware
10:41AM 40.1910 -95.0370 91° East 537 618 35,000  Level FlightAware
10:42AM 40.1900 -94.9080 91° East 537 618 35,000  Level FlightAware
10:42AM 40.1880 -94.7810 91° East 539 620 35,000  Level FlightAware
10:43AM 40.1870 -94.6840 91° East 539 620 35,000  Level FlightAware
10:43AM 40.1850 -94.5730 91° East 539 620 35,000  Level FlightAware
10:44AM 40.1830 -94.4560 91° East 538 619 35,000  Level FlightAware
10:44AM 40.1810 -94.3590 92° East 535 616 35,000  Level FlightAware
10:45AM 40.1780 -94.2300 92° East 534 615 35,000 -120 Level FlightAware
10:46AM 40.1760 -94.1070 91° East 536 617 34,900  Descending FlightAware
10:46AM 40.1730 -93.9620 92° East 537 618 35,000 60 Climbing FlightAware
10:47AM 40.1700 -93.8420 92° East 538 619 35,000  Level FlightAware
10:48AM 40.1680 -93.7440 91° East 539 620 35,000  Level FlightAware
10:48AM 40.1650 -93.6010 92° East 540 621 35,000  Level FlightAware
10:49AM 40.1610 -93.4840 93° East 539 620 35,000  Level FlightAware
10:50AM 40.1570 -93.3170 92° East 540 621 35,000  Level FlightAware
10:50AM 40.1530 -93.1780 92° East 538 619 35,000  Level FlightAware
10:51AM 40.1490 -93.0480 92° East 539 620 35,000  Level FlightAware
10:52AM 40.1460 -92.9500 92° East 538 619 35,000  Level FlightAware
10:52AM 40.1430 -92.8330 92° East 537 618 35,000  Level FlightAware
10:53AM 40.1390 -92.7360 93° East 537 618 35,000  Level FlightAware
10:53AM 40.1350 -92.6100 92° East 537 618 35,000  Level FlightAware
10:54AM 40.1270 -92.5030 96° East 538 619 35,000  Level FlightAware
10:55AM 40.1140 -92.3620 97° East 537 618 35,000  Level FlightAware
10:55AM 40.1040 -92.2520 97° East 537 618 35,000  Level FlightAware
10:56AM 40.0930 -92.1300 97° East 536 617 35,000  Level FlightAware
10:57AM 40.0790 -91.9790 97° East 536 617 35,000  Level FlightAware
10:57AM 40.0720 -91.9080 97° East 536 617 35,000  Level FlightAware
10:58AM 40.0600 -91.7780 97° East 537 618 35,000  Level FlightAware
10:58AM 40.0460 -91.6360 97° East 536 617 35,000  Level FlightAware
10:59AM 40.0380 -91.5460 97° East 536 617 35,000  Level FlightAware
11:00AM 40.0240 -91.4020 97° East 535 616 35,000  Level FlightAware
11:00AM 40.0110 -91.2740 98° East 535 616 35,000  Level FlightAware
11:01AM 39.9970 -91.1330 97° East 535 616 35,000  Level FlightAware
11:02AM 39.9850 -91.0180 98° East 534 615 35,000  Level FlightAware
11:02AM 39.9700 -90.8780 98° East 532 612 35,000  Level FlightAware
11:03AM 39.9570 -90.7510 98° East 531 611 35,000  Level FlightAware
11:04AM 39.9430 -90.6180 98° East 529 609 35,000 -120 Level FlightAware
11:05AM 39.9240 -90.4450 98° East 527 606 34,900  Descending FlightAware
11:05AM 39.9120 -90.3260 97° East 526 605 35,000 60 Climbing FlightAware
11:06AM 39.8910 -90.1330 98° East 525 604 35,000  Level FlightAware
11:07AM 39.8760 -89.9980 98° East 524 603 35,000  Level FlightAware
11:08AM 39.8640 -89.8920 98° East 523 602 35,000 -240 Level FlightAware
11:08AM 39.8460 -89.7340 98° East 517 595 34,700 -420 Descending FlightAware
11:09AM 39.8410 -89.6500 94° East 519 597 34,500 -600 Descending FlightAware
11:10AM 39.8420 -89.4470 90° East 521 600 33,800 -780 Descending FlightAware
11:11AM 39.8420 -89.2650 90° East 521 600 33,000 -480 Descending FlightAware
11:12AM 39.8430 -89.1140 89° East 528 608 33,000  Level FlightAware
11:12AM 39.8430 -89.0380 90° East 527 606 33,000  Level FlightAware
11:13AM 39.8430 -88.9120 90° East 527 606 33,000 -540 Level FlightAware
11:14AM 39.8430 -88.7610 90° East 519 597 32,300 -1,980 Descending FlightAware
11:14AM 39.8430 -88.6360 90° East 520 598 30,200 -3,240 Descending FlightAware
11:15AM 39.8430 -88.5300 90° East 525 604 28,000 -3,480 Descending FlightAware
11:16AM 39.8430 -88.4020 90° East 531 611 25,900 -2,700 Descending FlightAware
11:16AM 39.8410 -88.2520 91° East 508 585 24,200 -1,200 Descending FlightAware
11:17AM 39.8400 -88.1130 90° East 483 556 24,000 -180 Descending FlightAware
11:18AM 39.8390 -88.0150 91° East 481 554 24,000 -720 Level FlightAware
11:19AM 39.8380 -87.8180 90° East 484 557 22,800 -1,920 Descending FlightAware
11:19AM 39.8360 -87.7040 91° East 482 555 20,700 -2,640 Descending FlightAware
11:20AM 39.8360 -87.6020 90° East 461 531 19,500 -2,160 Descending FlightAware
11:21AM 39.8350 -87.5100 91° East 447 514 18,200 -2,220 Descending FlightAware
11:21AM 39.8330 -87.4420 92° East 463 533 17,300 -2,160 Descending FlightAware
11:22AM 39.8320 -87.3290 91° East 444 511 15,900 -2,340 Descending FlightAware
11:22AM 39.8300 -87.2160 91° East 433 498 14,000 -2,520 Descending FlightAware
11:23AM 39.8290 -87.1110 91° East 420 483 12,400 -1,320 Descending FlightAware
11:24AM 39.8260 -86.9790 92° East 414 476 12,000 -300 Descending FlightAware
11:25AM 39.8250 -86.8940 91° East 414 476 12,000  Level FlightAware
11:25AM 39.8240 -86.8090 91° East 414 476 12,000 -1,680 Level FlightAware
11:26AM 39.8167 -86.7167 91° East 409 471 10,400 -1,920 Descending Indianapolis TRACON
11:26AM 39.8200 -86.6517 86° East 398 458 10,000 -600 Descending Indianapolis Center
11:27AM 39.8175 -86.5117 91° East 333 383 9,400 -1,080 Descending Indianapolis Center
11:28AM 39.8158 -86.4047 91° East 305 351 7,900 -1,920 Descending Indianapolis Center
11:30AM 39.8206 -86.3008 87° East 290 334 5,500 -1,500 Descending Indianapolis Center
11:31AM 39.8833 -86.2333 40° Northeast 238 274 4,800 -780 Descending Indianapolis TRACON
11:32AM 39.9167 -86.1667 57° Northeast 235 270 4,000 -840 Descending Indianapolis TRACON
11:33AM 39.8667 -86.1333 153° Southeast 198 228 3,200 -660 Descending Indianapolis TRACON
11:34AM 39.8167 -86.1500 194° South 170 196 2,700 -360 Descending Indianapolis TRACON
11:35AM 39.7833 -86.2000 229° Southwest 158 182 2,500 -480 Descending Indianapolis TRACON
11:36AM 39.7500 -86.2333 218° Southwest 138 159 1,700 -600 Descending Indianapolis TRACON
11:38AM 39.6986 -86.3078 228° Southwest 142 163 800 -480 Descending Indianapolis Center